Time;durP1;ratioP1;P1;durP2;ratioP2;P2;SDS_P1;SDS_P2;PMS_P1;PMS_P2;Temp;Humidity;BMP_temperature;BMP_pressure;BME280_temperature;BME280_humidity;BME280_pressure;Samples;Min_cycle;Max_cycle;Signal;HPM_P1;HPM_P2
2021/07/07 00:00:06;;;;;;;8.25;1.48;;;;;;;;;;5034083;28;20017;-70
2021/07/07 00:02:31;;;;;;;6.65;2.00;;;;;;;;;;5020108;28;20041;-70
2021/07/07 00:04:57;;;;;;;4.72;1.48;;;;;;;;;;5034133;28;20018;-70
2021/07/07 00:07:23;;;;;;;4.45;1.20;;;;;;;;;;5026819;28;20482;-70
2021/07/07 00:09:50;;;;;;;9.10;1.50;;;;;;;;;;5017595;28;20021;-70
2021/07/07 00:12:16;;;;;;;11.23;1.75;;;;;;;;;;5027577;28;20025;-70
2021/07/07 00:14:42;;;;;;;5.75;1.27;;;;;;;;;;5025698;28;20467;-69
2021/07/07 00:17:08;;;;;;;7.93;2.33;;;;;;;;;;5019592;28;20044;-70
2021/07/07 00:19:34;;;;;;;5.97;1.92;;;;;;;;;;5034395;28;20672;-70
2021/07/07 00:22:00;;;;;;;8.73;2.22;;;;;;;;;;5066327;22;20041;-68
2021/07/07 00:24:27;;;;;;;5.80;1.45;;;;;;;;;;5045789;28;20478;-68
2021/07/07 00:26:53;;;;;;;10.65;2.67;;;;;;;;;;5034450;28;20447;-68
2021/07/07 00:29:19;;;;;;;11.73;2.03;;;;;;;;;;5041057;28;20096;-69
2021/07/07 00:31:45;;;;;;;5.75;1.92;;;;;;;;;;5040127;28;20115;-69
2021/07/07 00:34:11;;;;;;;6.65;2.22;;;;;;;;;;5032439;28;20065;-69
2021/07/07 00:36:37;;;;;;;6.72;1.95;;;;;;;;;;5036588;28;20470;-69
2021/07/07 00:39:04;;;;;;;5.88;1.60;;;;;;;;;;5031755;28;20635;-68
2021/07/07 00:41:30;;;;;;;9.52;2.35;;;;;;;;;;5035838;28;20026;-68
2021/07/07 00:43:56;;;;;;;5.78;2.38;;;;;;;;;;5040527;28;20132;-69
2021/07/07 00:46:22;;;;;;;7.40;2.25;;;;;;;;;;5050848;28;20128;-69
2021/07/07 00:48:48;;;;;;;9.30;1.90;;;;;;;;;;5037646;28;20025;-68
2021/07/07 00:51:14;;;;;;;5.82;2.20;;;;;;;;;;5040643;28;20490;-68
2021/07/07 00:53:41;;;;;;;4.40;2.10;;;;;;;;;;5036242;28;20033;-68
2021/07/07 00:56:09;;;;;;;8.75;1.67;;;;;;;;;;5039556;28;20028;-68
2021/07/07 00:58:36;;;;;;;10.98;2.60;;;;;;;;;;5043650;28;20024;-68
2021/07/07 01:01:04;;;;;;;7.80;2.13;;;;;;;;;;5039934;28;20028;-69
2021/07/07 01:03:30;;;;;;;5.75;1.80;;;;;;;;;;5039792;28;20036;-68
2021/07/07 01:05:55;;;;;;;8.88;2.28;;;;;;;;;;5033881;28;20366;-68
2021/07/07 01:08:21;;;;;;;7.20;1.90;;;;;;;;;;5039315;28;20109;-68
2021/07/07 01:10:47;;;;;;;7.10;2.50;;;;;;;;;;5052229;28;20043;-68
2021/07/07 01:13:13;;;;;;;9.63;2.90;;;;;;;;;;5039687;28;20060;-68
2021/07/07 01:15:41;;;;;;;13.32;2.67;;;;;;;;;;5021510;28;20086;-68
2021/07/07 01:18:07;;;;;;;10.07;2.60;;;;;;;;;;5038425;28;20406;-68
2021/07/07 01:20:33;;;;;;;9.45;3.05;;;;;;;;;;5048292;28;20040;-69
2021/07/07 01:22:59;;;;;;;13.65;2.97;;;;;;;;;;5036615;28;20037;-69
2021/07/07 01:25:26;;;;;;;5.80;2.22;;;;;;;;;;5051752;28;20036;-68
2021/07/07 01:27:53;;;;;;;11.38;2.35;;;;;;;;;;5037959;28;20029;-68
2021/07/07 01:30:21;;;;;;;8.25;2.35;;;;;;;;;;5044385;28;20083;-69
2021/07/07 01:32:47;;;;;;;13.88;2.33;;;;;;;;;;5036841;28;20113;-69
2021/07/07 01:35:14;;;;;;;8.73;2.58;;;;;;;;;;5037167;28;20470;-69
2021/07/07 01:37:40;;;;;;;7.32;2.58;;;;;;;;;;5034402;28;20017;-69
2021/07/07 01:40:07;;;;;;;7.75;2.15;;;;;;;;;;5047649;28;20029;-68
2021/07/07 01:42:33;;;;;;;6.90;2.38;;;;;;;;;;5032188;28;20041;-68
2021/07/07 01:44:59;;;;;;;10.57;2.42;;;;;;;;;;5046564;28;20056;-68
2021/07/07 01:47:25;;;;;;;9.15;2.70;;;;;;;;;;5033421;28;20087;-68
2021/07/07 01:49:51;;;;;;;8.80;2.90;;;;;;;;;;5048733;28;20028;-68
2021/07/07 01:52:17;;;;;;;13.27;2.35;;;;;;;;;;5039332;28;20641;-68
2021/07/07 01:54:43;;;;;;;8.18;2.65;;;;;;;;;;5042455;28;20402;-68
2021/07/07 01:57:09;;;;;;;3.95;1.88;;;;;;;;;;5038615;28;20114;-68
2021/07/07 01:59:35;;;;;;;8.70;2.40;;;;;;;;;;5020635;28;20035;-68
2021/07/07 02:02:01;;;;;;;7.90;2.42;;;;;;;;;;5032453;28;20505;-69
2021/07/07 02:04:26;;;;;;;10.60;3.60;;;;;;;;;;5049174;28;20017;-69
2021/07/07 02:06:52;;;;;;;7.40;2.40;;;;;;;;;;5048143;28;20177;-68
2021/07/07 02:09:19;;;;;;;7.43;3.35;;;;;;;;;;5047203;28;20378;-68
2021/07/07 02:11:47;;;;;;;8.52;2.70;;;;;;;;;;5050268;28;20078;-68
2021/07/07 02:14:13;;;;;;;8.90;3.08;;;;;;;;;;5048687;28;20021;-68
2021/07/07 02:16:38;;;;;;;7.00;2.30;;;;;;;;;;5048953;28;20024;-69
2021/07/07 02:19:04;;;;;;;9.07;2.95;;;;;;;;;;5050490;28;20366;-69
2021/07/07 02:21:30;;;;;;;7.53;3.35;;;;;;;;;;5037140;28;20497;-69
2021/07/07 02:23:57;;;;;;;6.50;3.08;;;;;;;;;;5038490;28;20490;-69
2021/07/07 02:26:23;;;;;;;7.95;3.08;;;;;;;;;;5041065;28;20115;-68
2021/07/07 02:28:49;;;;;;;8.05;3.30;;;;;;;;;;5043186;28;20029;-68
2021/07/07 02:31:15;;;;;;;10.88;3.53;;;;;;;;;;5045050;28;20038;-68
2021/07/07 02:33:41;;;;;;;8.43;3.20;;;;;;;;;;5020726;28;20108;-68
2021/07/07 02:36:08;;;;;;;8.45;3.13;;;;;;;;;;5036831;28;20013;-71
2021/07/07 02:38:34;;;;;;;9.25;3.55;;;;;;;;;;5043011;28;20136;-68
2021/07/07 02:41:00;;;;;;;10.10;3.08;;;;;;;;;;5049561;28;20025;-68
2021/07/07 02:43:26;;;;;;;8.57;3.15;;;;;;;;;;5040769;28;20465;-68
2021/07/07 02:45:53;;;;;;;7.90;3.83;;;;;;;;;;5045177;28;20021;-68
2021/07/07 02:48:19;;;;;;;8.57;2.65;;;;;;;;;;5030221;28;20025;-68
2021/07/07 02:50:45;;;;;;;9.10;3.70;;;;;;;;;;5045797;28;20116;-68
2021/07/07 02:53:12;;;;;;;7.95;3.28;;;;;;;;;;5038295;28;20033;-68
2021/07/07 02:55:38;;;;;;;6.68;2.92;;;;;;;;;;5049002;28;20023;-68
2021/07/07 02:58:05;;;;;;;10.27;3.38;;;;;;;;;;5050130;28;20021;-69
2021/07/07 03:00:34;;;;;;;7.05;3.20;;;;;;;;;;5057368;28;20024;-68
2021/07/07 03:03:20;;;;;;;9.00;3.40;;;;;;;;;;5046518;28;20087;-69
2021/07/07 03:05:49;;;;;;;11.85;3.33;;;;;;;;;;5033759;28;20033;-68
2021/07/07 03:08:15;;;;;;;9.45;3.08;;;;;;;;;;5049757;28;20068;-68
2021/07/07 03:10:42;;;;;;;9.85;3.10;;;;;;;;;;5042882;28;20501;-68
2021/07/07 03:13:08;;;;;;;7.80;2.35;;;;;;;;;;5034049;28;20041;-69
2021/07/07 03:15:36;;;;;;;8.75;2.50;;;;;;;;;;5019320;28;20345;-68
2021/07/07 03:18:02;;;;;;;9.32;2.50;;;;;;;;;;5041624;28;20498;-68
2021/07/07 03:20:28;;;;;;;6.10;2.17;;;;;;;;;;5048320;28;20025;-69
2021/07/07 03:22:54;;;;;;;6.55;2.30;;;;;;;;;;5030192;28;20037;-69
2021/07/07 03:25:20;;;;;;;7.63;2.33;;;;;;;;;;5035847;28;20029;-68
2021/07/07 03:27:48;;;;;;;7.10;2.88;;;;;;;;;;5043174;28;20025;-69
2021/07/07 03:30:14;;;;;;;6.63;2.60;;;;;;;;;;5042524;28;20022;-68
2021/07/07 03:32:40;;;;;;;8.23;2.33;;;;;;;;;;5022100;28;20390;-69
2021/07/07 03:35:06;;;;;;;5.80;2.25;;;;;;;;;;5041272;28;20018;-69
2021/07/07 03:37:32;;;;;;;9.57;2.22;;;;;;;;;;5036103;28;20025;-68
2021/07/07 03:39:58;;;;;;;18.08;2.88;;;;;;;;;;5033503;28;20097;-69
2021/07/07 03:42:24;;;;;;;6.85;2.05;;;;;;;;;;5033022;28;20033;-68
2021/07/07 03:44:50;;;;;;;7.88;1.67;;;;;;;;;;5022253;28;20075;-67
2021/07/07 03:47:16;;;;;;;8.38;2.33;;;;;;;;;;5047608;28;20021;-68
2021/07/07 03:49:42;;;;;;;7.38;1.70;;;;;;;;;;5026641;28;20028;-68
2021/07/07 03:52:08;;;;;;;6.45;2.03;;;;;;;;;;5037471;28;20053;-69
2021/07/07 03:54:34;;;;;;;5.28;1.95;;;;;;;;;;5039441;28;20061;-69
2021/07/07 03:57:00;;;;;;;7.53;2.78;;;;;;;;;;5034490;28;20072;-69
2021/07/07 03:59:26;;;;;;;3.92;1.58;;;;;;;;;;5046499;28;20108;-69
2021/07/07 04:01:53;;;;;;;9.90;2.22;;;;;;;;;;5033462;28;20025;-69
2021/07/07 04:04:19;;;;;;;5.82;1.52;;;;;;;;;;5053091;28;20100;-69
2021/07/07 04:06:45;;;;;;;6.35;2.22;;;;;;;;;;5043865;28;20025;-69
2021/07/07 04:09:13;;;;;;;7.95;2.25;;;;;;;;;;5038216;28;20117;-69
2021/07/07 04:11:38;;;;;;;7.90;2.15;;;;;;;;;;5035074;28;20017;-69
2021/07/07 04:14:04;;;;;;;5.57;2.30;;;;;;;;;;5049067;28;20067;-70
2021/07/07 04:16:30;;;;;;;8.13;2.30;;;;;;;;;;5038929;28;20029;-69
2021/07/07 04:18:56;;;;;;;7.55;2.20;;;;;;;;;;5036654;28;20064;-70
2021/07/07 04:21:22;;;;;;;9.27;2.53;;;;;;;;;;5046380;28;20034;-69
2021/07/07 04:23:48;;;;;;;5.60;1.88;;;;;;;;;;5016654;28;20386;-69
2021/07/07 04:26:14;;;;;;;6.45;2.17;;;;;;;;;;5032432;28;20037;-68
2021/07/07 04:28:40;;;;;;;7.82;2.05;;;;;;;;;;5047390;28;20032;-69
2021/07/07 04:31:06;;;;;;;6.65;1.90;;;;;;;;;;5036343;28;20027;-69
2021/07/07 04:33:32;;;;;;;5.32;2.17;;;;;;;;;;5038464;28;20108;-69
2021/07/07 04:35:58;;;;;;;8.25;2.20;;;;;;;;;;5047801;28;20071;-68
2021/07/07 04:38:24;;;;;;;6.97;1.83;;;;;;;;;;5037691;28;20475;-69
2021/07/07 04:40:50;;;;;;;5.85;2.35;;;;;;;;;;5041524;28;20017;-69
2021/07/07 04:43:16;;;;;;;9.80;2.25;;;;;;;;;;5047424;28;20036;-69
2021/07/07 04:45:42;;;;;;;7.85;2.10;;;;;;;;;;5033381;28;20029;-69
2021/07/07 04:48:07;;;;;;;7.22;1.67;;;;;;;;;;5048099;28;20032;-70
2021/07/07 04:50:35;;;;;;;6.45;2.08;;;;;;;;;;5045594;28;20040;-70
2021/07/07 04:53:01;;;;;;;5.85;1.65;;;;;;;;;;5049037;28;20025;-70
2021/07/07 04:55:27;;;;;;;6.55;1.90;;;;;;;;;;5045683;28;20018;-69
2021/07/07 04:57:54;;;;;;;9.02;2.50;;;;;;;;;;5031830;28;20052;-68
2021/07/07 05:00:21;;;;;;;1.98;1.25;;;;;;;;;;5034339;28;20091;-69
2021/07/07 05:02:48;;;;;;;9.93;2.28;;;;;;;;;;5041528;28;20392;-69
2021/07/07 05:05:15;;;;;;;4.55;1.70;;;;;;;;;;5039121;28;20030;-68
2021/07/07 05:07:42;;;;;;;5.47;1.67;;;;;;;;;;5048239;28;20098;-69
2021/07/07 05:10:08;;;;;;;7.25;1.77;;;;;;;;;;5044032;28;20386;-69
2021/07/07 05:12:34;;;;;;;4.22;1.40;;;;;;;;;;5039442;28;20059;-69
2021/07/07 05:15:01;;;;;;;6.20;1.85;;;;;;;;;;5050724;28;20021;-69
2021/07/07 05:17:27;;;;;;;5.22;1.83;;;;;;;;;;5047846;28;20054;-69
2021/07/07 05:19:53;;;;;;;5.47;1.75;;;;;;;;;;5039714;28;20025;-69
2021/07/07 05:22:19;;;;;;;4.60;1.80;;;;;;;;;;5031690;28;20041;-69
2021/07/07 05:24:45;;;;;;;8.77;1.90;;;;;;;;;;5025089;28;20029;-69
2021/07/07 05:27:12;;;;;;;5.82;1.80;;;;;;;;;;5034314;28;20017;-69
2021/07/07 05:29:38;;;;;;;6.75;2.08;;;;;;;;;;5043264;28;20035;-69
2021/07/07 05:32:04;;;;;;;5.95;1.77;;;;;;;;;;5020324;28;20489;-69
2021/07/07 05:34:30;;;;;;;7.07;2.50;;;;;;;;;;5036166;28;20079;-69
2021/07/07 05:36:56;;;;;;;7.20;2.30;;;;;;;;;;5032290;28;20387;-69
2021/07/07 05:39:22;;;;;;;6.72;1.88;;;;;;;;;;5031500;28;20017;-69
2021/07/07 05:41:48;;;;;;;4.47;1.73;;;;;;;;;;5032746;28;20036;-69
2021/07/07 05:44:14;;;;;;;8.48;2.45;;;;;;;;;;5035608;28;20044;-69
2021/07/07 05:46:40;;;;;;;5.45;2.08;;;;;;;;;;5031653;28;20040;-69
2021/07/07 05:49:06;;;;;;;5.57;2.13;;;;;;;;;;5033309;28;20387;-69
2021/07/07 05:51:32;;;;;;;6.90;1.70;;;;;;;;;;5030642;28;20453;-68
2021/07/07 05:53:58;;;;;;;5.68;1.55;;;;;;;;;;5033040;28;20029;-69
2021/07/07 05:56:24;;;;;;;5.32;1.17;;;;;;;;;;5035598;28;20025;-68
2021/07/07 05:58:50;;;;;;;7.65;1.40;;;;;;;;;;5032689;28;20121;-70
2021/07/07 06:01:16;;;;;;;5.90;1.45;;;;;;;;;;5029460;28;20096;-69
2021/07/07 06:03:42;;;;;;;6.25;1.55;;;;;;;;;;5031873;28;20136;-69
2021/07/07 06:06:08;;;;;;;12.00;2.00;;;;;;;;;;5031230;28;20033;-70
2021/07/07 06:08:34;;;;;;;5.40;1.55;;;;;;;;;;5030981;28;20017;-69
2021/07/07 06:11:00;;;;;;;9.30;1.38;;;;;;;;;;5033023;28;20025;-70
2021/07/07 06:13:26;;;;;;;6.20;1.25;;;;;;;;;;5029419;28;20032;-69
2021/07/07 06:15:52;;;;;;;10.57;1.27;;;;;;;;;;5034295;28;20429;-68
2021/07/07 06:18:18;;;;;;;7.15;1.30;;;;;;;;;;5030005;28;20162;-69
2021/07/07 06:20:44;;;;;;;7.53;1.58;;;;;;;;;;5031078;28;20064;-69
2021/07/07 06:23:10;;;;;;;8.05;1.30;;;;;;;;;;5049246;23;20505;-67
2021/07/07 06:25:36;;;;;;;5.20;1.10;;;;;;;;;;5017863;28;20021;-67
2021/07/07 06:28:03;;;;;;;5.45;1.15;;;;;;;;;;5026515;28;20457;-67
2021/07/07 06:30:29;;;;;;;4.93;1.10;;;;;;;;;;5029356;28;20017;-67
2021/07/07 06:32:56;;;;;;;6.18;1.20;;;;;;;;;;5016412;28;20402;-68
2021/07/07 06:35:22;;;;;;;6.65;1.25;;;;;;;;;;5016208;28;20029;-67
2021/07/07 06:37:49;;;;;;;5.38;1.35;;;;;;;;;;5022771;28;20025;-67
2021/07/07 06:40:16;;;;;;;8.10;1.73;;;;;;;;;;5021683;28;20033;-67
2021/07/07 06:42:42;;;;;;;5.57;1.40;;;;;;;;;;5021471;28;20022;-67
2021/07/07 06:45:09;;;;;;;6.93;1.30;;;;;;;;;;5018752;28;20121;-67
2021/07/07 06:47:35;;;;;;;5.35;0.90;;;;;;;;;;5018266;28;20393;-67
2021/07/07 06:50:01;;;;;;;5.90;1.20;;;;;;;;;;5019591;28;20087;-67
2021/07/07 06:52:27;;;;;;;5.72;1.25;;;;;;;;;;5029487;28;20026;-67
2021/07/07 06:54:53;;;;;;;4.95;1.10;;;;;;;;;;5010407;28;20075;-67
2021/07/07 06:57:19;;;;;;;2.95;0.80;;;;;;;;;;5009766;28;20033;-67
2021/07/07 06:59:45;;;;;;;5.15;1.13;;;;;;;;;;5010953;28;20022;-67
2021/07/07 07:02:11;;;;;;;6.95;1.02;;;;;;;;;;5011861;28;20081;-67
2021/07/07 07:04:37;;;;;;;5.53;0.80;;;;;;;;;;5022389;28;20029;-67
2021/07/07 07:07:03;;;;;;;8.32;1.23;;;;;;;;;;5028036;28;20390;-68
2021/07/07 07:09:29;;;;;;;4.18;1.15;;;;;;;;;;5020168;28;20037;-67
2021/07/07 07:11:55;;;;;;;10.10;1.05;;;;;;;;;;5011328;28;20034;-67
2021/07/07 07:14:21;;;;;;;5.80;0.93;;;;;;;;;;5009762;28;20038;-68
2021/07/07 07:16:47;;;;;;;2.83;0.75;;;;;;;;;;5008434;28;20030;-68
2021/07/07 07:19:16;;;;;;;4.82;0.90;;;;;;;;;;5016022;28;20109;-68
2021/07/07 07:21:42;;;;;;;7.22;1.30;;;;;;;;;;5022050;28;20048;-67
2021/07/07 07:24:09;;;;;;;5.70;1.40;;;;;;;;;;5019302;28;20398;-67
2021/07/07 07:26:36;;;;;;;5.00;1.05;;;;;;;;;;5010003;28;20375;-67
2021/07/07 07:29:02;;;;;;;6.22;1.20;;;;;;;;;;5013803;28;20056;-67
2021/07/07 07:31:28;;;;;;;5.47;1.25;;;;;;;;;;5017985;28;20037;-67
2021/07/07 07:33:53;;;;;;;11.30;1.02;;;;;;;;;;5025561;28;20028;-67
2021/07/07 07:36:21;;;;;;;7.63;1.30;;;;;;;;;;5029874;28;20549;-67
2021/07/07 07:38:49;;;;;;;7.93;1.33;;;;;;;;;;5019773;28;20030;-67
2021/07/07 07:41:15;;;;;;;6.82;1.30;;;;;;;;;;5023243;28;20029;-67
2021/07/07 07:43:43;;;;;;;7.03;1.98;;;;;;;;;;5029127;28;20025;-67
2021/07/07 07:46:09;;;;;;;4.00;1.38;;;;;;;;;;5011364;28;20029;-66
2021/07/07 07:48:35;;;;;;;4.57;1.33;;;;;;;;;;5015620;28;20461;-66
2021/07/07 07:51:03;;;;;;;5.03;1.10;;;;;;;;;;5019901;28;20053;-67
2021/07/07 07:53:29;;;;;;;4.65;1.30;;;;;;;;;;5026727;28;20033;-68
2021/07/07 07:55:55;;;;;;;7.70;2.85;;;;;;;;;;5014322;28;20046;-68
2021/07/07 07:58:21;;;;;;;5.80;1.48;;;;;;;;;;5009686;28;20026;-68
2021/07/07 08:00:48;;;;;;;7.43;1.60;;;;;;;;;;5014738;28;20112;-66
2021/07/07 08:03:14;;;;;;;3.50;1.17;;;;;;;;;;5008910;28;20037;-67
2021/07/07 08:05:40;;;;;;;2.85;1.17;;;;;;;;;;5015816;28;20017;-67
2021/07/07 08:08:07;;;;;;;4.93;1.13;;;;;;;;;;5018145;28;20025;-67
2021/07/07 08:10:33;;;;;;;8.70;1.33;;;;;;;;;;5014559;28;20029;-67
2021/07/07 08:12:59;;;;;;;5.90;1.90;;;;;;;;;;5016854;28;20034;-67
2021/07/07 08:15:26;;;;;;;3.40;1.60;;;;;;;;;;5015458;28;20390;-66
2021/07/07 08:17:52;;;;;;;3.80;1.80;;;;;;;;;;5016183;28;20030;-67
2021/07/07 08:20:19;;;;;;;5.05;1.27;;;;;;;;;;5030863;28;20061;-67
2021/07/07 08:22:45;;;;;;;3.03;1.33;;;;;;;;;;5018955;28;20044;-67
2021/07/07 08:25:11;;;;;;;8.00;0.95;;;;;;;;;;5024342;28;20045;-67
2021/07/07 08:27:38;;;;;;;6.68;1.65;;;;;;;;;;5028704;28;20017;-67
2021/07/07 08:30:05;;;;;;;9.13;1.20;;;;;;;;;;5015426;28;20045;-67
2021/07/07 08:32:31;;;;;;;3.20;0.85;;;;;;;;;;5031676;28;20033;-67
2021/07/07 08:34:57;;;;;;;3.65;1.27;;;;;;;;;;5013066;28;20094;-67
2021/07/07 08:37:23;;;;;;;1.92;0.90;;;;;;;;;;5016554;28;20025;-67
2021/07/07 08:39:49;;;;;;;5.50;1.85;;;;;;;;;;5017178;28;20022;-67
2021/07/07 08:42:15;;;;;;;4.00;1.30;;;;;;;;;;5021149;28;20033;-67
2021/07/07 08:44:44;;;;;;;5.95;1.20;;;;;;;;;;5016472;28;20491;-69
2021/07/07 08:47:11;;;;;;;4.05;1.10;;;;;;;;;;5014844;28;20057;-68
2021/07/07 08:49:37;;;;;;;2.88;1.13;;;;;;;;;;5016638;28;20026;-68
2021/07/07 08:52:03;;;;;;;5.13;1.35;;;;;;;;;;5002405;28;20487;-68
2021/07/07 08:54:30;;;;;;;4.20;1.35;;;;;;;;;;4996615;28;20023;-67
2021/07/07 08:56:57;;;;;;;7.35;1.60;;;;;;;;;;5003015;28;20025;-68
2021/07/07 08:59:24;;;;;;;7.85;1.90;;;;;;;;;;5000186;28;20061;-67
2021/07/07 09:01:59;;;;;;;4.85;2.10;;;;;;;;;;4997282;28;20038;-66
2021/07/07 09:04:29;;;;;;;5.78;2.45;;;;;;;;;;5004034;28;20022;-66
2021/07/07 09:07:02;;;;;;;9.60;3.05;;;;;;;;;;5005237;28;20026;-66
2021/07/07 09:09:39;;;;;;;4.38;2.95;;;;;;;;;;4998306;28;20045;-66
2021/07/07 09:12:12;;;;;;;4.32;2.50;;;;;;;;;;4999283;28;20049;-66
2021/07/07 09:14:38;;;;;;;4.88;2.60;;;;;;;;;;4999372;28;20530;-66
2021/07/07 09:17:09;;;;;;;3.63;3.00;;;;;;;;;;4999054;28;20101;-65
2021/07/07 09:19:37;;;;;;;8.18;3.88;;;;;;;;;;4996332;28;20018;-66
2021/07/07 09:22:06;;;;;;;8.90;3.92;;;;;;;;;;5002167;28;20062;-66
2021/07/07 09:24:32;;;;;;;4.27;2.93;;;;;;;;;;4999708;28;20030;-66
2021/07/07 09:27:09;;;;;;;5.45;3.58;;;;;;;;;;5006880;28;20394;-66
2021/07/07 09:29:43;;;;;;;11.43;3.45;;;;;;;;;;4998414;28;20383;-66
2021/07/07 09:32:12;;;;;;;4.72;3.58;;;;;;;;;;5001184;28;20034;-66
2021/07/07 09:34:39;;;;;;;6.75;4.10;;;;;;;;;;4997327;28;20022;-66
2021/07/07 09:37:06;;;;;;;6.45;4.60;;;;;;;;;;5000023;28;20061;-66
2021/07/07 09:39:33;;;;;;;10.75;4.45;;;;;;;;;;5002955;28;20383;-66
2021/07/07 09:41:59;;;;;;;8.40;4.18;;;;;;;;;;4999581;28;20033;-67
2021/07/07 09:44:29;;;;;;;6.85;3.72;;;;;;;;;;5007184;28;20037;-67
2021/07/07 09:46:55;;;;;;;5.63;3.25;;;;;;;;;;5009378;28;20037;-66
2021/07/07 09:49:23;;;;;;;4.28;2.15;;;;;;;;;;5010892;28;20060;-66
2021/07/07 09:51:49;;;;;;;3.22;1.58;;;;;;;;;;5010869;28;20037;-66
2021/07/07 09:54:15;;;;;;;3.92;1.52;;;;;;;;;;5005836;28;20093;-66
2021/07/07 09:56:41;;;;;;;3.35;1.52;;;;;;;;;;5008382;28;20030;-66
2021/07/07 09:59:07;;;;;;;4.72;1.45;;;;;;;;;;5011010;28;20030;-66
2021/07/07 10:01:33;;;;;;;7.10;1.73;;;;;;;;;;5010711;28;20061;-66
2021/07/07 10:04:01;;;;;;;7.30;1.30;;;;;;;;;;5010533;28;20060;-66
2021/07/07 10:06:27;;;;;;;6.72;1.40;;;;;;;;;;5010969;28;20116;-66
2021/07/07 10:08:53;;;;;;;3.85;1.42;;;;;;;;;;5003073;28;20026;-66
2021/07/07 10:11:19;;;;;;;4.70;1.30;;;;;;;;;;5008108;28;20025;-67
2021/07/07 10:13:46;;;;;;;2.70;1.40;;;;;;;;;;5009516;28;20025;-67
2021/07/07 10:16:15;;;;;;;7.93;1.90;;;;;;;;;;5010764;28;20029;-67
2021/07/07 10:18:41;;;;;;;3.25;1.70;;;;;;;;;;4998750;28;20054;-68
2021/07/07 10:21:07;;;;;;;7.85;2.20;;;;;;;;;;4997638;28;20103;-67
2021/07/07 10:23:35;;;;;;;4.35;1.88;;;;;;;;;;4998178;28;20034;-68
2021/07/07 10:26:01;;;;;;;7.72;1.83;;;;;;;;;;4994505;28;20021;-68
2021/07/07 10:28:27;;;;;;;7.00;2.00;;;;;;;;;;4990030;28;20038;-68
2021/07/07 10:30:56;;;;;;;9.85;2.88;;;;;;;;;;5009918;28;20019;-68
2021/07/07 10:33:23;;;;;;;4.82;1.50;;;;;;;;;;5007941;28;20026;-68
2021/07/07 10:35:50;;;;;;;9.93;1.65;;;;;;;;;;4995013;28;20109;-68
2021/07/07 10:38:16;;;;;;;5.30;1.42;;;;;;;;;;4995085;28;20022;-67
2021/07/07 10:40:51;;;;;;;7.03;1.77;;;;;;;;;;5012624;28;20037;-68
2021/07/07 10:43:24;;;;;;;3.75;1.60;;;;;;;;;;4993992;28;20022;-68
2021/07/07 10:45:50;;;;;;;5.88;1.42;;;;;;;;;;4995304;28;20061;-68
2021/07/07 10:48:32;;;;;;;5.50;1.30;;;;;;;;;;5015356;28;20148;-68
2021/07/07 10:50:58;;;;;;;4.18;1.80;;;;;;;;;;4999478;28;20088;-66
2021/07/07 10:53:33;;;;;;;4.50;2.35;;;;;;;;;;5002903;28;20439;-68
2021/07/07 10:56:00;;;;;;;4.55;1.75;;;;;;;;;;4996553;28;20041;-68
2021/07/07 10:58:36;;;;;;;4.28;2.20;;;;;;;;;;5018109;28;20371;-68
2021/07/07 11:01:04;;;;;;;7.10;2.30;;;;;;;;;;5003423;28;20461;-68
2021/07/07 11:03:35;;;;;;;6.15;2.83;;;;;;;;;;5003326;28;20503;-69
2021/07/07 11:06:25;;;;;;;3.45;2.00;;;;;;;;;;4998088;28;20029;-69
2021/07/07 11:08:52;;;;;;;5.22;2.13;;;;;;;;;;5001000;28;20058;-68
2021/07/07 11:11:25;;;;;;;5.38;2.20;;;;;;;;;;5000944;28;20026;-68
2021/07/07 11:13:55;;;;;;;6.72;3.10;;;;;;;;;;5004593;28;20034;-68
2021/07/07 11:16:22;;;;;;;6.05;2.67;;;;;;;;;;4999164;28;20050;-68
2021/07/07 11:18:49;;;;;;;6.40;2.38;;;;;;;;;;5003249;28;20022;-68
2021/07/07 11:21:15;;;;;;;3.55;1.63;;;;;;;;;;4991156;28;20061;-68
2021/07/07 11:23:41;;;;;;;4.72;2.30;;;;;;;;;;4992422;28;20038;-68
2021/07/07 11:26:08;;;;;;;6.68;2.40;;;;;;;;;;4999782;28;20170;-68
2021/07/07 11:28:34;;;;;;;4.65;2.42;;;;;;;;;;4994916;28;20036;-68
2021/07/07 11:31:00;;;;;;;5.68;2.25;;;;;;;;;;4995955;28;20042;-68
2021/07/07 11:33:26;;;;;;;7.07;3.22;;;;;;;;;;4996928;28;20034;-68
2021/07/07 11:35:52;;;;;;;6.65;2.50;;;;;;;;;;4999178;28;20017;-69
2021/07/07 11:38:28;;;;;;;6.47;2.92;;;;;;;;;;4996527;28;20080;-68
2021/07/07 11:40:55;;;;;;;3.80;2.35;;;;;;;;;;5016986;28;20026;-68
2021/07/07 11:43:24;;;;;;;4.68;3.00;;;;;;;;;;4995424;28;20050;-69
2021/07/07 11:45:57;;;;;;;5.87;3.07;;;;;;;;;;4998061;28;20018;-68
2021/07/07 11:50:56;;;;;;;4.68;2.30;;;;;;;;;;4998500;28;20019;-68
2021/07/07 11:53:22;;;;;;;3.35;2.05;;;;;;;;;;5015806;28;20025;-68
2021/07/07 11:55:51;;;;;;;4.57;1.95;;;;;;;;;;5004393;28;20022;-68
2021/07/07 11:58:22;;;;;;;10.03;2.70;;;;;;;;;;4999875;28;20093;-68
2021/07/07 12:00:48;;;;;;;5.72;2.15;;;;;;;;;;5001150;28;20026;-68
2021/07/07 12:03:16;;;;;;;4.22;1.80;;;;;;;;;;4996957;28;20463;-69
2021/07/07 12:05:49;;;;;;;5.00;2.03;;;;;;;;;;4996266;28;20147;-69
2021/07/07 12:08:16;;;;;;;4.07;1.90;;;;;;;;;;4999553;28;20057;-68
2021/07/07 12:10:42;;;;;;;4.22;2.38;;;;;;;;;;5006222;28;20113;-68
2021/07/07 12:13:30;;;;;;;3.63;1.50;;;;;;;;;;5000865;28;20033;-68
2021/07/07 12:16:15;;;;;;;6.30;1.70;;;;;;;;;;4996162;28;20798;-68
2021/07/07 12:18:41;;;;;;;4.55;1.33;;;;;;;;;;5008354;28;20014;-67
2021/07/07 12:21:07;;;;;;;4.40;1.50;;;;;;;;;;5003019;28;20025;-68
2021/07/07 12:23:52;;;;;;;8.82;2.10;;;;;;;;;;5049451;22;20098;-67
2021/07/07 12:26:19;;;;;;;4.70;2.33;;;;;;;;;;5027497;28;20022;-69
2021/07/07 12:28:45;;;;;;;3.05;1.80;;;;;;;;;;5024797;28;20116;-68
2021/07/07 12:31:11;;;;;;;8.05;3.00;;;;;;;;;;5030741;28;20204;-69
2021/07/07 12:33:37;;;;;;;12.27;3.28;;;;;;;;;;5017526;28;20501;-69
2021/07/07 12:36:03;;;;;;;18.92;4.82;;;;;;;;;;5020722;28;20470;-69
2021/07/07 12:38:31;;;;;;;46.38;7.72;;;;;;;;;;5015829;28;20501;-68
2021/07/07 12:40:57;;;;;;;8.30;3.63;;;;;;;;;;5026479;28;20497;-67
2021/07/07 12:43:28;;;;;;;5.63;2.40;;;;;;;;;;5015027;28;20104;-66
2021/07/07 12:46:02;;;;;;;5.25;2.63;;;;;;;;;;5019069;28;20030;-69
2021/07/07 12:48:28;;;;;;;4.45;3.05;;;;;;;;;;5032501;28;20025;-69
2021/07/07 12:50:54;;;;;;;5.82;2.35;;;;;;;;;;5018871;28;20385;-67
2021/07/07 12:53:35;;;;;;;6.97;2.58;;;;;;;;;;5020509;28;20108;-68
2021/07/07 12:56:08;;;;;;;6.53;2.80;;;;;;;;;;5017328;28;20014;-69
2021/07/07 12:58:34;;;;;;;5.25;2.03;;;;;;;;;;5019772;28;20032;-67
2021/07/07 13:01:00;;;;;;;5.30;2.63;;;;;;;;;;5019004;28;20410;-69
2021/07/07 13:03:35;;;;;;;7.93;2.15;;;;;;;;;;5015530;28;20383;-69
2021/07/07 13:06:03;;;;;;;6.80;2.47;;;;;;;;;;5026994;28;20121;-70
2021/07/07 13:08:32;;;;;;;6.28;2.85;;;;;;;;;;5023643;28;20021;-69
2021/07/07 13:10:58;;;;;;;4.40;2.10;;;;;;;;;;5028684;28;20025;-69
2021/07/07 13:13:28;;;;;;;4.85;2.30;;;;;;;;;;5022804;28;20022;-69
2021/07/07 13:15:59;;;;;;;4.20;2.08;;;;;;;;;;5025429;28;20045;-69
2021/07/07 13:18:25;;;;;;;3.67;1.75;;;;;;;;;;5023425;28;20390;-69
2021/07/07 13:21:17;;;;;;;4.50;2.47;;;;;;;;;;5019868;28;20097;-69
2021/07/07 13:23:49;;;;;;;5.28;2.67;;;;;;;;;;5023195;28;20050;-69
2021/07/07 13:26:22;;;;;;;5.82;2.70;;;;;;;;;;5011796;28;20022;-69
2021/07/07 13:28:50;;;;;;;7.15;2.88;;;;;;;;;;5013145;28;20072;-69
2021/07/07 13:31:18;;;;;;;5.18;2.58;;;;;;;;;;5014727;28;20026;-69
2021/07/07 13:33:44;;;;;;;8.70;2.80;;;;;;;;;;5009491;28;20029;-69
2021/07/07 13:36:10;;;;;;;5.50;2.55;;;;;;;;;;5013729;28;20382;-69
2021/07/07 13:38:36;;;;;;;8.95;2.72;;;;;;;;;;5013368;28;20483;-70
2021/07/07 13:41:02;;;;;;;6.40;2.33;;;;;;;;;;5019750;28;20022;-69
2021/07/07 13:43:28;;;;;;;5.07;2.38;;;;;;;;;;5015233;28;20029;-69
2021/07/07 13:45:54;;;;;;;6.80;2.40;;;;;;;;;;5014296;28;20501;-69
2021/07/07 13:48:21;;;;;;;4.90;2.25;;;;;;;;;;5011138;28;20100;-69
2021/07/07 13:50:47;;;;;;;3.22;2.17;;;;;;;;;;5011243;28;20109;-70
2021/07/07 13:53:13;;;;;;;5.15;2.63;;;;;;;;;;5014314;28;20105;-69
2021/07/07 13:55:39;;;;;;;2.88;2.30;;;;;;;;;;5024388;28;20406;-69
2021/07/07 13:58:05;;;;;;;9.95;2.90;;;;;;;;;;5024585;28;20036;-69
2021/07/07 14:00:31;;;;;;;5.43;2.75;;;;;;;;;;5014565;28;20496;-70
2021/07/07 14:02:57;;;;;;;5.47;2.35;;;;;;;;;;5023768;28;20029;-70
2021/07/07 14:05:23;;;;;;;4.05;2.03;;;;;;;;;;5023076;28;20048;-70
2021/07/07 14:07:49;;;;;;;3.28;1.92;;;;;;;;;;5027515;28;20028;-70
2021/07/07 14:10:15;;;;;;;5.10;2.50;;;;;;;;;;5021187;28;20156;-70
2021/07/07 14:12:41;;;;;;;6.05;2.83;;;;;;;;;;5015040;28;20033;-70
2021/07/07 14:15:07;;;;;;;4.95;2.30;;;;;;;;;;5015489;28;20026;-70
2021/07/07 14:17:33;;;;;;;4.03;2.28;;;;;;;;;;5026202;28;20021;-70
2021/07/07 14:19:59;;;;;;;5.47;3.00;;;;;;;;;;5010495;28;20022;-70
2021/07/07 14:22:25;;;;;;;6.55;2.25;;;;;;;;;;5013354;28;20046;-70
2021/07/07 14:24:51;;;;;;;5.95;2.97;;;;;;;;;;5021016;28;20100;-70
2021/07/07 14:27:17;;;;;;;5.00;2.83;;;;;;;;;;5020429;28;20596;-70
2021/07/07 14:29:43;;;;;;;5.78;2.78;;;;;;;;;;5013722;28;20033;-71
2021/07/07 14:32:09;;;;;;;3.90;2.35;;;;;;;;;;5020032;28;20172;-70
2021/07/07 14:34:35;;;;;;;7.07;2.78;;;;;;;;;;5020582;28;20097;-70
2021/07/07 14:37:00;;;;;;;4.43;2.13;;;;;;;;;;5020286;28;20034;-70
2021/07/07 14:39:26;;;;;;;8.45;2.03;;;;;;;;;;5017611;28;20032;-70
2021/07/07 14:41:52;;;;;;;7.38;2.30;;;;;;;;;;5015589;28;20021;-71
2021/07/07 14:44:20;;;;;;;6.60;2.38;;;;;;;;;;5019020;28;20029;-71